sensor_id;sensor_type;location;lat;lon;timestamp;P1;durP1;ratioP1;P2;durP2;ratioP2
51987;SDS011;38003;52.012;4.346;2023-07-31T00:00:10;129.93;;;121.93;;
51987;SDS011;38003;52.012;4.346;2023-07-31T00:02:40;142.87;;;134.80;;
51987;SDS011;38003;52.012;4.346;2023-07-31T00:05:09;147.83;;;139.37;;
51987;SDS011;38003;52.012;4.346;2023-07-31T00:07:37;171.93;;;162.60;;
51987;SDS011;38003;52.012;4.346;2023-07-31T00:10:05;159.17;;;150.30;;
51987;SDS011;38003;52.012;4.346;2023-07-31T00:12:34;165.87;;;156.03;;
51987;SDS011;38003;52.012;4.346;2023-07-31T00:15:02;178.33;;;168.63;;
51987;SDS011;38003;52.012;4.346;2023-07-31T00:17:31;143.00;;;134.90;;
51987;SDS011;38003;52.012;4.346;2023-07-31T00:20:00;146.37;;;137.87;;
51987;SDS011;38003;52.012;4.346;2023-07-31T00:22:28;163.70;;;154.63;;
51987;SDS011;38003;52.012;4.346;2023-07-31T00:24:57;163.90;;;155.07;;
51987;SDS011;38003;52.012;4.346;2023-07-31T00:27:25;149.87;;;141.07;;
51987;SDS011;38003;52.012;4.346;2023-07-31T00:29:54;145.87;;;137.50;;
51987;SDS011;38003;52.012;4.346;2023-07-31T00:32:22;167.20;;;157.73;;
51987;SDS011;38003;52.012;4.346;2023-07-31T00:34:50;159.70;;;151.03;;
51987;SDS011;38003;52.012;4.346;2023-07-31T00:37:20;168.93;;;160.10;;
51987;SDS011;38003;52.012;4.346;2023-07-31T00:39:48;161.70;;;152.80;;
51987;SDS011;38003;52.012;4.346;2023-07-31T00:42:16;176.77;;;166.80;;
51987;SDS011;38003;52.012;4.346;2023-07-31T00:44:45;202.17;;;192.23;;
51987;SDS011;38003;52.012;4.346;2023-07-31T00:47:13;217.33;;;206.50;;
51987;SDS011;38003;52.012;4.346;2023-07-31T00:49:41;169.37;;;160.03;;
51987;SDS011;38003;52.012;4.346;2023-07-31T00:52:09;172.80;;;163.63;;
51987;SDS011;38003;52.012;4.346;2023-07-31T00:54:39;192.77;;;183.07;;
51987;SDS011;38003;52.012;4.346;2023-07-31T00:57:07;211.37;;;200.80;;
51987;SDS011;38003;52.012;4.346;2023-07-31T00:59:35;216.33;;;205.90;;
51987;SDS011;38003;52.012;4.346;2023-07-31T01:02:04;193.33;;;183.97;;
51987;SDS011;38003;52.012;4.346;2023-07-31T01:04:32;177.53;;;168.87;;
51987;SDS011;38003;52.012;4.346;2023-07-31T01:07:02;144.97;;;138.03;;
51987;SDS011;38003;52.012;4.346;2023-07-31T01:09:33;147.50;;;139.50;;
51987;SDS011;38003;52.012;4.346;2023-07-31T01:12:06;146.97;;;139.13;;
51987;SDS011;38003;52.012;4.346;2023-07-31T01:14:35;176.10;;;166.10;;
51987;SDS011;38003;52.012;4.346;2023-07-31T01:17:03;187.67;;;178.03;;
51987;SDS011;38003;52.012;4.346;2023-07-31T01:19:31;179.17;;;169.37;;
51987;SDS011;38003;52.012;4.346;2023-07-31T01:22:10;184.00;;;174.40;;
51987;SDS011;38003;52.012;4.346;2023-07-31T01:24:41;174.83;;;165.17;;
51987;SDS011;38003;52.012;4.346;2023-07-31T01:27:15;168.93;;;159.63;;
51987;SDS011;38003;52.012;4.346;2023-07-31T01:29:46;139.20;;;131.13;;
51987;SDS011;38003;52.012;4.346;2023-07-31T01:32:16;101.37;;;94.80;;
51987;SDS011;38003;52.012;4.346;2023-07-31T01:34:45;94.80;;;88.93;;
51987;SDS011;38003;52.012;4.346;2023-07-31T01:37:14;91.67;;;86.20;;
51987;SDS011;38003;52.012;4.346;2023-07-31T01:39:42;98.60;;;91.67;;
51987;SDS011;38003;52.012;4.346;2023-07-31T01:42:12;88.27;;;82.17;;
51987;SDS011;38003;52.012;4.346;2023-07-31T01:44:40;94.60;;;88.47;;
51987;SDS011;38003;52.012;4.346;2023-07-31T01:47:08;87.43;;;81.57;;
51987;SDS011;38003;52.012;4.346;2023-07-31T01:49:37;94.57;;;88.83;;
51987;SDS011;38003;52.012;4.346;2023-07-31T01:52:05;86.47;;;80.97;;
51987;SDS011;38003;52.012;4.346;2023-07-31T01:54:33;75.57;;;70.40;;
51987;SDS011;38003;52.012;4.346;2023-07-31T01:57:03;60.33;;;55.53;;
51987;SDS011;38003;52.012;4.346;2023-07-31T01:59:33;82.07;;;76.50;;
51987;SDS011;38003;52.012;4.346;2023-07-31T02:02:01;75.40;;;69.53;;
51987;SDS011;38003;52.012;4.346;2023-07-31T02:04:29;81.07;;;75.50;;
51987;SDS011;38003;52.012;4.346;2023-07-31T02:06:57;61.10;;;56.07;;
51987;SDS011;38003;52.012;4.346;2023-07-31T02:09:26;60.00;;;54.90;;
51987;SDS011;38003;52.012;4.346;2023-07-31T02:11:54;55.53;;;50.93;;
51987;SDS011;38003;52.012;4.346;2023-07-31T02:14:22;50.77;;;46.03;;
51987;SDS011;38003;52.012;4.346;2023-07-31T02:16:52;60.17;;;55.27;;
51987;SDS011;38003;52.012;4.346;2023-07-31T02:19:20;46.87;;;42.70;;
51987;SDS011;38003;52.012;4.346;2023-07-31T02:21:48;42.73;;;38.77;;
51987;SDS011;38003;52.012;4.346;2023-07-31T02:24:16;30.00;;;27.00;;
51987;SDS011;38003;52.012;4.346;2023-07-31T02:26:45;34.30;;;29.80;;
51987;SDS011;38003;52.012;4.346;2023-07-31T02:29:13;30.73;;;27.53;;
51987;SDS011;38003;52.012;4.346;2023-07-31T02:31:41;30.60;;;24.10;;
51987;SDS011;38003;52.012;4.346;2023-07-31T02:34:11;23.60;;;16.47;;
51987;SDS011;38003;52.012;4.346;2023-07-31T02:36:39;27.73;;;13.80;;
51987;SDS011;38003;52.012;4.346;2023-07-31T02:39:08;23.07;;;12.70;;
51987;SDS011;38003;52.012;4.346;2023-07-31T02:41:36;24.07;;;13.73;;
51987;SDS011;38003;52.012;4.346;2023-07-31T02:44:04;23.17;;;16.30;;
51987;SDS011;38003;52.012;4.346;2023-07-31T02:46:32;24.73;;;13.93;;
51987;SDS011;38003;52.012;4.346;2023-07-31T02:49:00;24.47;;;14.83;;
51987;SDS011;38003;52.012;4.346;2023-07-31T02:51:30;29.73;;;12.83;;
51987;SDS011;38003;52.012;4.346;2023-07-31T02:53:58;20.43;;;13.20;;
51987;SDS011;38003;52.012;4.346;2023-07-31T02:56:26;31.57;;;17.03;;
51987;SDS011;38003;52.012;4.346;2023-07-31T02:58:55;31.50;;;16.10;;
51987;SDS011;38003;52.012;4.346;2023-07-31T03:01:23;25.07;;;15.27;;
51987;SDS011;38003;52.012;4.346;2023-07-31T03:03:51;27.90;;;20.70;;
51987;SDS011;38003;52.012;4.346;2023-07-31T03:06:19;28.53;;;16.13;;
51987;SDS011;38003;52.012;4.346;2023-07-31T03:08:49;30.20;;;17.67;;
51987;SDS011;38003;52.012;4.346;2023-07-31T03:11:17;25.07;;;13.93;;
51987;SDS011;38003;52.012;4.346;2023-07-31T03:13:45;23.17;;;12.20;;
51987;SDS011;38003;52.012;4.346;2023-07-31T03:16:14;24.73;;;12.43;;
51987;SDS011;38003;52.012;4.346;2023-07-31T03:18:42;22.17;;;9.80;;
51987;SDS011;38003;52.012;4.346;2023-07-31T03:21:10;23.67;;;10.13;;
51987;SDS011;38003;52.012;4.346;2023-07-31T03:23:38;20.03;;;12.23;;
51987;SDS011;38003;52.012;4.346;2023-07-31T03:26:08;25.87;;;13.57;;
51987;SDS011;38003;52.012;4.346;2023-07-31T03:28:36;27.30;;;13.57;;
51987;SDS011;38003;52.012;4.346;2023-07-31T03:31:05;27.00;;;17.33;;
51987;SDS011;38003;52.012;4.346;2023-07-31T03:33:34;27.97;;;17.53;;
51987;SDS011;38003;52.012;4.346;2023-07-31T03:36:03;25.13;;;17.13;;
51987;SDS011;38003;52.012;4.346;2023-07-31T03:38:31;28.97;;;18.33;;
51987;SDS011;38003;52.012;4.346;2023-07-31T03:40:59;26.13;;;22.63;;
51987;SDS011;38003;52.012;4.346;2023-07-31T03:43:29;21.23;;;18.43;;
51987;SDS011;38003;52.012;4.346;2023-07-31T03:45:59;26.50;;;24.00;;
51987;SDS011;38003;52.012;4.346;2023-07-31T03:48:28;23.77;;;21.80;;
51987;SDS011;38003;52.012;4.346;2023-07-31T03:50:56;33.60;;;31.33;;
51987;SDS011;38003;52.012;4.346;2023-07-31T03:53:25;37.67;;;35.53;;
51987;SDS011;38003;52.012;4.346;2023-07-31T03:55:53;50.37;;;47.57;;
51987;SDS011;38003;52.012;4.346;2023-07-31T03:58:21;60.40;;;56.90;;
51987;SDS011;38003;52.012;4.346;2023-07-31T04:00:51;69.47;;;66.07;;
51987;SDS011;38003;52.012;4.346;2023-07-31T04:03:19;81.17;;;77.07;;
51987;SDS011;38003;52.012;4.346;2023-07-31T04:05:47;105.00;;;99.97;;
51987;SDS011;38003;52.012;4.346;2023-07-31T04:08:16;105.17;;;100.07;;
51987;SDS011;38003;52.012;4.346;2023-07-31T04:10:44;112.20;;;107.03;;
51987;SDS011;38003;52.012;4.346;2023-07-31T04:13:13;114.33;;;109.07;;
51987;SDS011;38003;52.012;4.346;2023-07-31T04:15:41;114.07;;;108.97;;
51987;SDS011;38003;52.012;4.346;2023-07-31T04:18:11;109.80;;;105.03;;
51987;SDS011;38003;52.012;4.346;2023-07-31T04:20:39;111.47;;;106.53;;
51987;SDS011;38003;52.012;4.346;2023-07-31T04:23:07;120.63;;;115.53;;
51987;SDS011;38003;52.012;4.346;2023-07-31T04:25:35;141.67;;;135.47;;
51987;SDS011;38003;52.012;4.346;2023-07-31T04:28:04;159.03;;;152.23;;
51987;SDS011;38003;52.012;4.346;2023-07-31T04:30:32;157.80;;;151.10;;
51987;SDS011;38003;52.012;4.346;2023-07-31T04:33:00;201.23;;;192.90;;
51987;SDS011;38003;52.012;4.346;2023-07-31T04:35:30;228.97;;;219.67;;
51987;SDS011;38003;52.012;4.346;2023-07-31T04:37:58;205.63;;;197.30;;
51987;SDS011;38003;52.012;4.346;2023-07-31T04:40:26;181.93;;;174.17;;
51987;SDS011;38003;52.012;4.346;2023-07-31T04:42:55;125.37;;;120.03;;
51987;SDS011;38003;52.012;4.346;2023-07-31T04:45:23;151.83;;;145.33;;
51987;SDS011;38003;52.012;4.346;2023-07-31T04:47:51;141.93;;;135.80;;
51987;SDS011;38003;52.012;4.346;2023-07-31T04:50:19;141.83;;;135.93;;
51987;SDS011;38003;52.012;4.346;2023-07-31T04:52:49;140.37;;;134.33;;
51987;SDS011;38003;52.012;4.346;2023-07-31T04:55:17;135.53;;;129.83;;
51987;SDS011;38003;52.012;4.346;2023-07-31T04:57:45;134.17;;;128.50;;
51987;SDS011;38003;52.012;4.346;2023-07-31T05:00:13;128.00;;;122.50;;
51987;SDS011;38003;52.012;4.346;2023-07-31T05:02:42;118.93;;;113.80;;
51987;SDS011;38003;52.012;4.346;2023-07-31T05:05:10;111.03;;;106.17;;
51987;SDS011;38003;52.012;4.346;2023-07-31T05:07:38;121.63;;;116.23;;
51987;SDS011;38003;52.012;4.346;2023-07-31T05:10:08;120.57;;;115.43;;
51987;SDS011;38003;52.012;4.346;2023-07-31T05:12:37;119.77;;;114.57;;
51987;SDS011;38003;52.012;4.346;2023-07-31T05:15:05;122.77;;;117.30;;
51987;SDS011;38003;52.012;4.346;2023-07-31T05:17:34;135.60;;;129.73;;
51987;SDS011;38003;52.012;4.346;2023-07-31T05:20:02;140.63;;;134.53;;
51987;SDS011;38003;52.012;4.346;2023-07-31T05:22:30;148.77;;;142.50;;
51987;SDS011;38003;52.012;4.346;2023-07-31T05:24:58;145.33;;;139.03;;
51987;SDS011;38003;52.012;4.346;2023-07-31T05:27:28;148.87;;;142.43;;
51987;SDS011;38003;52.012;4.346;2023-07-31T05:29:56;159.33;;;152.70;;
51987;SDS011;38003;52.012;4.346;2023-07-31T05:32:24;179.23;;;171.30;;
51987;SDS011;38003;52.012;4.346;2023-07-31T05:34:53;195.10;;;186.80;;
51987;SDS011;38003;52.012;4.346;2023-07-31T05:37:21;192.63;;;184.63;;
51987;SDS011;38003;52.012;4.346;2023-07-31T05:39:49;187.37;;;179.40;;
51987;SDS011;38003;52.012;4.346;2023-07-31T05:42:18;208.03;;;199.17;;
51987;SDS011;38003;52.012;4.346;2023-07-31T05:44:47;224.40;;;215.10;;
51987;SDS011;38003;52.012;4.346;2023-07-31T05:47:16;220.70;;;211.50;;
51987;SDS011;38003;52.012;4.346;2023-07-31T05:49:44;226.83;;;217.33;;
51987;SDS011;38003;52.012;4.346;2023-07-31T05:52:12;233.07;;;223.37;;
51987;SDS011;38003;52.012;4.346;2023-07-31T05:54:41;245.57;;;234.97;;
51987;SDS011;38003;52.012;4.346;2023-07-31T05:57:09;273.73;;;261.70;;
51987;SDS011;38003;52.012;4.346;2023-07-31T05:59:37;285.87;;;273.90;;
51987;SDS011;38003;52.012;4.346;2023-07-31T06:02:07;295.90;;;283.00;;
51987;SDS011;38003;52.012;4.346;2023-07-31T06:04:35;305.77;;;292.67;;
51987;SDS011;38003;52.012;4.346;2023-07-31T06:07:04;323.97;;;309.77;;
51987;SDS011;38003;52.012;4.346;2023-07-31T06:09:32;304.07;;;290.97;;
51987;SDS011;38003;52.012;4.346;2023-07-31T06:12:00;318.47;;;304.60;;
51987;SDS011;38003;52.012;4.346;2023-07-31T06:14:29;323.90;;;309.90;;
51987;SDS011;38003;52.012;4.346;2023-07-31T06:16:57;337.80;;;323.13;;
51987;SDS011;38003;52.012;4.346;2023-07-31T06:19:26;348.07;;;332.83;;
51987;SDS011;38003;52.012;4.346;2023-07-31T06:21:55;357.63;;;341.93;;
51987;SDS011;38003;52.012;4.346;2023-07-31T06:24:23;420.73;;;402.33;;
51987;SDS011;38003;52.012;4.346;2023-07-31T06:26:51;489.80;;;468.40;;
51987;SDS011;38003;52.012;4.346;2023-07-31T06:29:20;496.33;;;473.73;;
51987;SDS011;38003;52.012;4.346;2023-07-31T06:31:48;514.60;;;491.83;;
51987;SDS011;38003;52.012;4.346;2023-07-31T06:34:17;510.93;;;488.20;;
51987;SDS011;38003;52.012;4.346;2023-07-31T06:36:46;522.27;;;498.97;;
51987;SDS011;38003;52.012;4.346;2023-07-31T06:39:14;524.30;;;500.73;;
51987;SDS011;38003;52.012;4.346;2023-07-31T06:41:43;535.20;;;511.07;;
51987;SDS011;38003;52.012;4.346;2023-07-31T06:44:11;578.30;;;552.17;;
51987;SDS011;38003;52.012;4.346;2023-07-31T06:46:40;568.57;;;542.67;;
51987;SDS011;38003;52.012;4.346;2023-07-31T06:49:08;564.80;;;539.40;;
51987;SDS011;38003;52.012;4.346;2023-07-31T06:51:36;555.67;;;530.67;;
51987;SDS011;38003;52.012;4.346;2023-07-31T06:54:06;544.40;;;520.10;;
51987;SDS011;38003;52.012;4.346;2023-07-31T06:56:34;540.07;;;515.87;;
51987;SDS011;38003;52.012;4.346;2023-07-31T06:59:06;529.13;;;505.10;;
51987;SDS011;38003;52.012;4.346;2023-07-31T07:01:34;545.60;;;521.70;;
51987;SDS011;38003;52.012;4.346;2023-07-31T07:04:03;533.93;;;509.93;;
51987;SDS011;38003;52.012;4.346;2023-07-31T07:06:31;567.37;;;541.53;;
51987;SDS011;38003;52.012;4.346;2023-07-31T07:08:59;590.40;;;562.50;;
51987;SDS011;38003;52.012;4.346;2023-07-31T07:11:29;593.80;;;565.80;;
51987;SDS011;38003;52.012;4.346;2023-07-31T07:13:57;550.53;;;525.80;;
51987;SDS011;38003;52.012;4.346;2023-07-31T07:16:26;501.73;;;479.40;;
51987;SDS011;38003;52.012;4.346;2023-07-31T07:18:54;511.30;;;488.33;;
51987;SDS011;38003;52.012;4.346;2023-07-31T07:21:30;519.47;;;496.37;;
51987;SDS011;38003;52.012;4.346;2023-07-31T07:23:58;486.57;;;465.37;;
51987;SDS011;38003;52.012;4.346;2023-07-31T07:26:26;501.00;;;478.63;;
51987;SDS011;38003;52.012;4.346;2023-07-31T07:28:56;506.77;;;484.07;;
51987;SDS011;38003;52.012;4.346;2023-07-31T07:31:27;499.87;;;477.47;;
51987;SDS011;38003;52.012;4.346;2023-07-31T07:33:55;506.70;;;483.90;;
51987;SDS011;38003;52.012;4.346;2023-07-31T07:36:24;504.07;;;481.30;;
51987;SDS011;38003;52.012;4.346;2023-07-31T07:38:52;532.73;;;508.93;;
51987;SDS011;38003;52.012;4.346;2023-07-31T07:41:21;559.23;;;533.13;;
51987;SDS011;38003;52.012;4.346;2023-07-31T07:43:50;601.47;;;573.07;;
51987;SDS011;38003;52.012;4.346;2023-07-31T07:46:19;589.50;;;561.13;;
51987;SDS011;38003;52.012;4.346;2023-07-31T07:48:48;609.67;;;581.70;;
51987;SDS011;38003;52.012;4.346;2023-07-31T07:51:16;639.23;;;608.23;;
51987;SDS011;38003;52.012;4.346;2023-07-31T07:53:45;657.20;;;624.47;;
51987;SDS011;38003;52.012;4.346;2023-07-31T07:56:13;665.60;;;632.20;;
51987;SDS011;38003;52.012;4.346;2023-07-31T07:58:41;667.70;;;634.30;;
51987;SDS011;38003;52.012;4.346;2023-07-31T08:01:09;673.57;;;641.13;;
51987;SDS011;38003;52.012;4.346;2023-07-31T08:03:39;652.60;;;620.30;;
51987;SDS011;38003;52.012;4.346;2023-07-31T08:06:07;668.13;;;634.77;;
51987;SDS011;38003;52.012;4.346;2023-07-31T08:08:36;667.90;;;633.97;;
51987;SDS011;38003;52.012;4.346;2023-07-31T08:11:04;690.67;;;654.40;;
51987;SDS011;38003;52.012;4.346;2023-07-31T08:13:33;721.47;;;683.17;;
51987;SDS011;38003;52.012;4.346;2023-07-31T08:16:03;722.23;;;682.93;;
51987;SDS011;38003;52.012;4.346;2023-07-31T08:18:31;718.33;;;679.67;;
51987;SDS011;38003;52.012;4.346;2023-07-31T08:21:02;715.00;;;674.67;;
51987;SDS011;38003;52.012;4.346;2023-07-31T08:23:30;704.30;;;666.20;;
51987;SDS011;38003;52.012;4.346;2023-07-31T08:25:59;702.97;;;665.47;;
51987;SDS011;38003;52.012;4.346;2023-07-31T08:28:27;710.70;;;672.57;;
51987;SDS011;38003;52.012;4.346;2023-07-31T08:30:55;731.97;;;691.10;;
51987;SDS011;38003;52.012;4.346;2023-07-31T08:33:23;728.50;;;691.17;;
51987;SDS011;38003;52.012;4.346;2023-07-31T08:35:52;719.40;;;680.63;;
51987;SDS011;38003;52.012;4.346;2023-07-31T08:38:21;713.83;;;674.03;;
51987;SDS011;38003;52.012;4.346;2023-07-31T08:40:51;724.33;;;683.83;;
51987;SDS011;38003;52.012;4.346;2023-07-31T08:43:20;708.73;;;669.30;;
51987;SDS011;38003;52.012;4.346;2023-07-31T08:45:50;732.40;;;691.40;;
51987;SDS011;38003;52.012;4.346;2023-07-31T08:48:18;728.30;;;687.53;;
51987;SDS011;38003;52.012;4.346;2023-07-31T08:50:47;727.57;;;686.37;;
51987;SDS011;38003;52.012;4.346;2023-07-31T08:53:15;729.03;;;688.50;;
51987;SDS011;38003;52.012;4.346;2023-07-31T08:55:45;734.70;;;695.27;;
51987;SDS011;38003;52.012;4.346;2023-07-31T08:58:14;719.87;;;680.27;;
51987;SDS011;38003;52.012;4.346;2023-07-31T09:00:43;715.40;;;675.27;;
51987;SDS011;38003;52.012;4.346;2023-07-31T09:03:13;749.67;;;707.60;;
51987;SDS011;38003;52.012;4.346;2023-07-31T09:05:42;743.80;;;701.23;;
51987;SDS011;38003;52.012;4.346;2023-07-31T09:08:12;720.40;;;677.30;;
51987;SDS011;38003;52.012;4.346;2023-07-31T09:10:41;725.03;;;683.33;;
51987;SDS011;38003;52.012;4.346;2023-07-31T09:13:10;717.37;;;676.00;;
51987;SDS011;38003;52.012;4.346;2023-07-31T09:15:39;725.43;;;685.63;;
51987;SDS011;38003;52.012;4.346;2023-07-31T09:18:07;718.97;;;680.47;;
51987;SDS011;38003;52.012;4.346;2023-07-31T09:20:36;710.93;;;672.87;;
51987;SDS011;38003;52.012;4.346;2023-07-31T09:23:05;707.03;;;669.97;;
51987;SDS011;38003;52.012;4.346;2023-07-31T09:25:34;732.70;;;694.30;;
51987;SDS011;38003;52.012;4.346;2023-07-31T09:28:03;742.20;;;703.27;;
51987;SDS011;38003;52.012;4.346;2023-07-31T09:30:41;732.37;;;694.00;;
51987;SDS011;38003;52.012;4.346;2023-07-31T09:33:11;724.40;;;687.77;;
51987;SDS011;38003;52.012;4.346;2023-07-31T09:35:40;716.57;;;680.10;;
51987;SDS011;38003;52.012;4.346;2023-07-31T09:38:09;702.90;;;667.37;;
51987;SDS011;38003;52.012;4.346;2023-07-31T09:40:38;707.72;;;672.58;;
51987;SDS011;38003;52.012;4.346;2023-07-31T09:43:07;697.77;;;662.87;;
51987;SDS011;38003;52.012;4.346;2023-07-31T09:45:38;683.87;;;650.10;;
51987;SDS011;38003;52.012;4.346;2023-07-31T09:48:08;690.37;;;656.83;;
51987;SDS011;38003;52.012;4.346;2023-07-31T09:50:37;696.97;;;662.63;;
51987;SDS011;38003;52.012;4.346;2023-07-31T09:53:05;689.93;;;656.03;;
51987;SDS011;38003;52.012;4.346;2023-07-31T09:55:34;675.97;;;643.37;;
51987;SDS011;38003;52.012;4.346;2023-07-31T09:58:03;663.53;;;629.43;;
51987;SDS011;38003;52.012;4.346;2023-07-31T10:00:32;673.70;;;640.80;;
51987;SDS011;38003;52.012;4.346;2023-07-31T10:03:02;682.80;;;649.33;;
51987;SDS011;38003;52.012;4.346;2023-07-31T10:05:34;655.17;;;624.13;;
51987;SDS011;38003;52.012;4.346;2023-07-31T10:08:02;654.30;;;623.43;;
51987;SDS011;38003;52.012;4.346;2023-07-31T10:10:31;632.43;;;602.67;;
51987;SDS011;38003;52.012;4.346;2023-07-31T10:12:59;641.00;;;611.27;;
51987;SDS011;38003;52.012;4.346;2023-07-31T10:15:29;637.00;;;607.80;;
51987;SDS011;38003;52.012;4.346;2023-07-31T10:17:57;671.00;;;638.27;;
51987;SDS011;38003;52.012;4.346;2023-07-31T10:20:27;661.57;;;629.70;;
51987;SDS011;38003;52.012;4.346;2023-07-31T10:22:56;651.53;;;620.37;;
51987;SDS011;38003;52.012;4.346;2023-07-31T10:25:25;649.13;;;616.90;;
51987;SDS011;38003;52.012;4.346;2023-07-31T10:27:54;601.27;;;572.90;;
51987;SDS011;38003;52.012;4.346;2023-07-31T10:30:23;589.97;;;562.23;;
51987;SDS011;38003;52.012;4.346;2023-07-31T10:32:52;567.80;;;541.70;;
51987;SDS011;38003;52.012;4.346;2023-07-31T10:35:21;536.03;;;511.40;;
51987;SDS011;38003;52.012;4.346;2023-07-31T10:37:50;565.03;;;539.20;;
51987;SDS011;38003;52.012;4.346;2023-07-31T10:40:23;543.27;;;518.20;;
51987;SDS011;38003;52.012;4.346;2023-07-31T10:42:52;531.40;;;506.90;;
51987;SDS011;38003;52.012;4.346;2023-07-31T10:45:24;529.90;;;505.67;;
51987;SDS011;38003;52.012;4.346;2023-07-31T10:47:58;538.57;;;513.87;;
51987;SDS011;38003;52.012;4.346;2023-07-31T10:50:28;495.27;;;472.30;;
51987;SDS011;38003;52.012;4.346;2023-07-31T10:53:00;466.13;;;444.87;;
51987;SDS011;38003;52.012;4.346;2023-07-31T10:55:30;484.97;;;463.20;;
51987;SDS011;38003;52.012;4.346;2023-07-31T10:58:05;510.97;;;488.10;;
51987;SDS011;38003;52.012;4.346;2023-07-31T11:00:34;502.17;;;479.43;;
51987;SDS011;38003;52.012;4.346;2023-07-31T11:03:04;490.20;;;468.33;;
51987;SDS011;38003;52.012;4.346;2023-07-31T11:05:40;532.23;;;508.50;;
51987;SDS011;38003;52.012;4.346;2023-07-31T11:08:15;546.57;;;522.23;;
51987;SDS011;38003;52.012;4.346;2023-07-31T11:10:44;540.97;;;517.00;;
51987;SDS011;38003;52.012;4.346;2023-07-31T11:13:13;546.70;;;522.23;;
51987;SDS011;38003;52.012;4.346;2023-07-31T11:15:42;498.37;;;476.37;;
51987;SDS011;38003;52.012;4.346;2023-07-31T11:18:10;520.03;;;497.43;;
51987;SDS011;38003;52.012;4.346;2023-07-31T11:20:38;515.60;;;493.20;;
51987;SDS011;38003;52.012;4.346;2023-07-31T11:23:08;449.03;;;429.50;;
51987;SDS011;38003;52.012;4.346;2023-07-31T11:25:38;447.67;;;428.57;;
51987;SDS011;38003;52.012;4.346;2023-07-31T11:28:08;480.37;;;459.60;;
51987;SDS011;38003;52.012;4.346;2023-07-31T11:30:37;424.80;;;406.50;;
51987;SDS011;38003;52.012;4.346;2023-07-31T11:33:07;425.10;;;407.40;;
51987;SDS011;38003;52.012;4.346;2023-07-31T11:35:40;388.30;;;371.70;;
51987;SDS011;38003;52.012;4.346;2023-07-31T11:38:10;309.50;;;296.67;;
51987;SDS011;38003;52.012;4.346;2023-07-31T11:40:42;295.67;;;283.13;;
51987;SDS011;38003;52.012;4.346;2023-07-31T11:43:10;229.77;;;220.00;;
51987;SDS011;38003;52.012;4.346;2023-07-31T11:45:46;208.50;;;199.45;;
51987;SDS011;38003;52.012;4.346;2023-07-31T11:48:21;227.67;;;217.67;;
51987;SDS011;38003;52.012;4.346;2023-07-31T11:50:50;224.80;;;215.02;;
51987;SDS011;38003;52.012;4.346;2023-07-31T11:53:19;227.97;;;218.43;;
51987;SDS011;38003;52.012;4.346;2023-07-31T11:55:49;239.97;;;229.73;;
51987;SDS011;38003;52.012;4.346;2023-07-31T11:58:17;280.37;;;268.40;;
51987;SDS011;38003;52.012;4.346;2023-07-31T12:00:46;378.50;;;362.63;;
51987;SDS011;38003;52.012;4.346;2023-07-31T12:03:14;400.13;;;383.13;;
51987;SDS011;38003;52.012;4.346;2023-07-31T12:05:43;392.83;;;376.13;;
51987;SDS011;38003;52.012;4.346;2023-07-31T12:08:11;375.70;;;359.97;;
51987;SDS011;38003;52.012;4.346;2023-07-31T12:10:39;391.23;;;374.40;;
51987;SDS011;38003;52.012;4.346;2023-07-31T12:13:10;430.00;;;412.00;;
51987;SDS011;38003;52.012;4.346;2023-07-31T12:15:40;419.00;;;401.60;;
51987;SDS011;38003;52.012;4.346;2023-07-31T12:18:09;379.57;;;363.73;;
51987;SDS011;38003;52.012;4.346;2023-07-31T12:20:41;384.52;;;368.60;;
51987;SDS011;38003;52.012;4.346;2023-07-31T12:23:14;403.27;;;386.33;;
51987;SDS011;38003;52.012;4.346;2023-07-31T12:25:42;365.37;;;350.20;;
51987;SDS011;38003;52.012;4.346;2023-07-31T12:28:12;316.93;;;304.27;;
51987;SDS011;38003;52.012;4.346;2023-07-31T12:30:40;328.67;;;314.67;;
51987;SDS011;38003;52.012;4.346;2023-07-31T12:33:12;316.13;;;303.20;;
51987;SDS011;38003;52.012;4.346;2023-07-31T12:35:42;287.17;;;275.23;;
51987;SDS011;38003;52.012;4.346;2023-07-31T12:38:11;249.53;;;239.50;;
51987;SDS011;38003;52.012;4.346;2023-07-31T12:40:40;206.03;;;197.17;;
51987;SDS011;38003;52.012;4.346;2023-07-31T12:43:08;202.17;;;193.53;;
51987;SDS011;38003;52.012;4.346;2023-07-31T12:45:38;261.33;;;250.33;;
51987;SDS011;38003;52.012;4.346;2023-07-31T12:48:06;288.80;;;276.70;;
51987;SDS011;38003;52.012;4.346;2023-07-31T12:50:35;328.55;;;314.65;;
51987;SDS011;38003;52.012;4.346;2023-07-31T12:53:04;356.83;;;341.65;;
51987;SDS011;38003;52.012;4.346;2023-07-31T12:55:32;342.80;;;328.50;;
51987;SDS011;38003;52.012;4.346;2023-07-31T12:58:03;366.60;;;350.87;;
51987;SDS011;38003;52.012;4.346;2023-07-31T13:00:31;351.10;;;336.40;;
51987;SDS011;38003;52.012;4.346;2023-07-31T13:03:01;431.37;;;413.10;;
51987;SDS011;38003;52.012;4.346;2023-07-31T13:05:29;468.43;;;448.87;;
51987;SDS011;38003;52.012;4.346;2023-07-31T13:07:58;493.43;;;472.30;;
51987;SDS011;38003;52.012;4.346;2023-07-31T13:10:26;509.85;;;488.30;;
51987;SDS011;38003;52.012;4.346;2023-07-31T13:12:56;511.88;;;489.58;;
51987;SDS011;38003;52.012;4.346;2023-07-31T13:15:24;524.53;;;502.15;;
51987;SDS011;38003;52.012;4.346;2023-07-31T13:17:52;543.43;;;519.60;;
51987;SDS011;38003;52.012;4.346;2023-07-31T13:20:22;521.97;;;499.77;;
51987;SDS011;38003;52.012;4.346;2023-07-31T13:22:50;564.97;;;540.17;;
51987;SDS011;38003;52.012;4.346;2023-07-31T13:25:18;545.93;;;521.83;;
51987;SDS011;38003;52.012;4.346;2023-07-31T13:27:46;522.17;;;499.43;;
51987;SDS011;38003;52.012;4.346;2023-07-31T13:30:15;524.80;;;502.13;;
51987;SDS011;38003;52.012;4.346;2023-07-31T13:32:43;532.60;;;509.23;;
51987;SDS011;38003;52.012;4.346;2023-07-31T13:35:11;564.50;;;539.37;;
51987;SDS011;38003;52.012;4.346;2023-07-31T13:37:41;567.37;;;542.30;;
51987;SDS011;38003;52.012;4.346;2023-07-31T13:40:09;565.97;;;540.40;;
51987;SDS011;38003;52.012;4.346;2023-07-31T13:42:38;579.60;;;553.87;;
51987;SDS011;38003;52.012;4.346;2023-07-31T13:45:06;584.60;;;558.30;;
51987;SDS011;38003;52.012;4.346;2023-07-31T13:47:34;582.23;;;556.73;;
51987;SDS011;38003;52.012;4.346;2023-07-31T13:50:04;615.97;;;588.33;;
51987;SDS011;38003;52.012;4.346;2023-07-31T13:52:32;585.07;;;559.03;;
51987;SDS011;38003;52.012;4.346;2023-07-31T13:55:02;597.57;;;570.63;;
51987;SDS011;38003;52.012;4.346;2023-07-31T13:57:30;624.90;;;596.13;;
51987;SDS011;38003;52.012;4.346;2023-07-31T13:59:58;629.33;;;599.97;;
51987;SDS011;38003;52.012;4.346;2023-07-31T14:02:26;644.63;;;614.43;;
51987;SDS011;38003;52.012;4.346;2023-07-31T14:04:55;608.87;;;580.03;;
51987;SDS011;38003;52.012;4.346;2023-07-31T14:07:23;635.67;;;605.87;;
51987;SDS011;38003;52.012;4.346;2023-07-31T14:09:51;628.93;;;599.33;;